الصفحة الرئيسية
METAR-TAF:

METAR-TAF

مطار :

مطار لوجان الدولي

بوسطن, ماساتشوستس, الولايات المتحدة

دائرة عرض: 42-21-38N, خط طول: 071-00-38W, ارتفاع: 6 متر

مراقبة الطقس الحالي

تاريخ ووقت الإصدار 25 دقيقة قبل الساعة 16:54UTC
ريح 11 عقدة من الغرب تتزايد حتى 14 عقدة
درجة الحرارة 9°درجة مئوية
الرطوبة 53%
ضغط 1017 hPa
الرؤية: 16.1 كم
غيوم متفرقة على ارتفاع 4000 قدم
غيوم مفككة على ارتفاع 6000 قدم

METAR: KBOS 171654Z 27011G14KT 10SM SCT040 BKN060 09/00 A3004 RMK AO2 SLP171 T00890000

زمن: 12:19 (17:19 UTC)

توقعات

تاريخ ووقت الإصدار 2ساعات و 13 دقيقة قبل الساعة 15:06UTC
التوقعات صالحة من17 الساعة 15 UTC إلى 18 الساعة 18 UTC
ريح 12 عقدة من الغرب/الجنوب الغربي
الرؤية: 10 كم
غيوم متفرقة على ارتفاع 4000 قدم
من 17 الساعة 2100 UTC
ريح 10 عقدة من الغرب
الرؤية: 10 كم
غيوم متفرقة على ارتفاع 4000 قدم
من 18 الساعة 0600 UTC
ريح 5 عقدة من الشمال الغربي
الرؤية: 10 كم
غيوم قليلة على ارتفاع 4000 قدم

TAF: KBOS 171506Z 1715/1818 25012KT P6SM SCT040 FM172100 28010KT P6SM SCT040 FM180600 32005KT P6SM FEW040

أرصاد الطقس والتوقعات من أكثر من 4000 مطار (تقارير الطقس للمطار METAR والتنبؤ بالطقس بالمطارTAF).

المحطات المتاحة هي النقط الصفراء والحمراء على الخريطة.

حرك المؤشر فوق النقطة لمعرفة اسم المحطة.

ثم انقر لمعرفة أرصاد وتوقعات الطقس.

لتغيير الخارطة: اضغط على الأزرار الخضراء مع رمز الصليب الأسود للتكبير. على الزر الأخضر مع شرطة للتصغير، أو على الأسهم الخضراء للخرائط المجاورة.


METAR-TAF: